createdAt,value
2022-09-07T00:01:40.079Z,94.54
2022-09-07T00:04:07.974Z,94.76
2022-09-07T00:06:34.744Z,95.19
2022-09-07T00:09:02.479Z,95.05
2022-09-07T00:11:29.315Z,94.86
2022-09-07T00:13:56.135Z,94.55
2022-09-07T00:16:27.893Z,95.69
2022-09-07T00:18:57.049Z,96.08
2022-09-07T00:21:24.326Z,96.04
2022-09-07T00:23:51.940Z,96.27
2022-09-07T00:26:21.498Z,96.16
2022-09-07T00:28:48.958Z,96.43
2022-09-07T00:31:18.800Z,96.76
2022-09-07T00:33:45.952Z,97.29
2022-09-07T00:36:12.557Z,97.29
2022-09-07T00:38:39.156Z,97.29
2022-09-07T00:41:05.902Z,97.27
2022-09-07T00:43:42.076Z,97.32
2022-09-07T00:46:29.732Z,97.67
2022-09-07T00:49:19.168Z,97.38
2022-09-07T00:51:54.008Z,97.21
2022-09-07T00:54:28.388Z,97.61
2022-09-07T00:56:55.101Z,97.57
2022-09-07T00:59:26.841Z,97.52
2022-09-07T01:01:53.693Z,97.43
2022-09-07T01:04:22.250Z,97.68
2022-09-07T01:06:49.237Z,97.69
2022-09-07T01:09:19.793Z,97.60
2022-09-07T01:11:51.034Z,97.54
2022-09-07T01:14:24.960Z,97.39
2022-09-07T01:17:07.238Z,97.39
2022-09-07T01:19:42.593Z,97.40
2022-09-07T01:22:21.380Z,97.15
2022-09-07T01:25:12.605Z,97.09
2022-09-07T01:28:03.906Z,96.83
2022-09-07T01:30:35.253Z,96.73
2022-09-07T01:33:10.677Z,96.28
2022-09-07T01:35:52.521Z,96.05
2022-09-07T01:38:30.909Z,96.05
2022-09-07T01:41:06.108Z,96.17
2022-09-07T01:43:37.550Z,96.37
2022-09-07T01:46:10.537Z,96.53
2022-09-07T01:48:39.660Z,96.41
2022-09-07T01:51:06.300Z,96.57
2022-09-07T01:53:38.065Z,96.60
2022-09-07T01:56:10.007Z,96.21
2022-09-07T01:58:46.223Z,95.57
2022-09-07T02:01:15.630Z,95.60
2022-09-07T02:04:22.438Z,95.30
2022-09-07T02:06:56.114Z,95.27
2022-09-07T02:09:47.585Z,95.16
2022-09-07T02:12:50.754Z,95.34
2022-09-07T02:15:23.797Z,95.22
2022-09-07T02:17:54.388Z,95.25
2022-09-07T02:20:31.413Z,95.42
2022-09-07T02:23:02.581Z,95.33
2022-09-07T02:25:37.829Z,95.59
2022-09-07T02:28:11.371Z,95.35
2022-09-07T02:30:38.294Z,95.41
2022-09-07T02:33:05.613Z,95.56
2022-09-07T02:35:33.525Z,95.84
2022-09-07T02:38:03.529Z,96.13
2022-09-07T02:40:30.090Z,96.29
2022-09-07T02:43:02.978Z,96.52
2022-09-07T02:45:38.850Z,96.39
2022-09-07T02:48:23.188Z,96.59
2022-09-07T02:51:11.037Z,96.43
2022-09-07T02:54:02.786Z,96.24
2022-09-07T02:56:53.106Z,96.23
2022-09-07T02:59:25.681Z,96.38
2022-09-07T03:01:55.299Z,96.41
2022-09-07T03:04:54.513Z,96.57
2022-09-07T03:07:30.621Z,96.69
2022-09-07T03:09:58.458Z,96.78
2022-09-07T03:12:25.016Z,96.89
2022-09-07T03:14:51.571Z,96.78
2022-09-07T03:17:18.239Z,96.66
2022-09-07T03:19:44.786Z,96.85
2022-09-07T03:22:11.301Z,96.88
2022-09-07T03:24:37.858Z,96.66
2022-09-07T03:27:04.403Z,96.92
2022-09-07T03:29:31.037Z,96.92
2022-09-07T03:31:57.806Z,96.99
2022-09-07T03:34:24.343Z,96.99
2022-09-07T03:36:50.877Z,96.79
2022-09-07T03:39:21.040Z,96.89
2022-09-07T03:41:47.890Z,96.82
2022-09-07T03:44:14.470Z,97.00
2022-09-07T03:46:41.171Z,97.06
2022-09-07T03:49:07.682Z,97.11
2022-09-07T03:51:34.254Z,97.15
2022-09-07T03:54:00.817Z,97.21
2022-09-07T03:56:27.725Z,97.26
2022-09-07T03:58:54.865Z,97.29
2022-09-07T04:01:24.447Z,97.06
2022-09-07T04:03:51.978Z,97.19
2022-09-07T04:06:19.822Z,96.94
2022-09-07T04:08:46.390Z,96.93
2022-09-07T04:11:16.226Z,97.02
2022-09-07T04:13:43.562Z,97.03
2022-09-07T04:16:22.001Z,97.10
2022-09-07T04:18:51.940Z,97.37
2022-09-07T04:21:18.850Z,96.98
2022-09-07T04:23:45.894Z,96.87
2022-09-07T04:26:18.445Z,96.93
2022-09-07T04:28:45.636Z,97.16
2022-09-07T04:31:13.901Z,96.81
2022-09-07T04:33:40.565Z,96.86
2022-09-07T04:36:07.646Z,97.00
2022-09-07T04:38:34.483Z,96.98
2022-09-07T04:41:09.531Z,96.60
2022-09-07T04:43:38.097Z,96.54
2022-09-07T04:46:19.394Z,96.79
2022-09-07T04:48:57.843Z,96.89
2022-09-07T04:51:27.229Z,96.97
2022-09-07T04:53:55.421Z,97.14
2022-09-07T04:56:23.276Z,97.28
2022-09-07T04:58:50.408Z,97.30
2022-09-07T05:01:19.706Z,97.44
2022-09-07T05:03:47.290Z,97.35
2022-09-07T05:06:14.751Z,97.32
2022-09-07T05:08:44.480Z,97.31
2022-09-07T05:11:12.254Z,97.38
2022-09-07T05:13:39.081Z,97.48
2022-09-07T05:16:09.491Z,97.29
2022-09-07T05:18:36.447Z,97.24
2022-09-07T05:21:17.312Z,97.17
2022-09-07T05:23:45.535Z,97.00
2022-09-07T05:26:12.236Z,96.94
2022-09-07T05:28:39.346Z,97.01
2022-09-07T05:36:32.538Z,96.48
2022-09-07T05:38:59.581Z,96.60
2022-09-07T05:41:27.032Z,96.53
2022-09-07T05:46:41.328Z,96.76
2022-09-07T05:49:08.213Z,96.51
2022-09-07T05:51:34.780Z,96.57
2022-09-07T05:54:01.572Z,96.57
2022-09-07T05:56:28.258Z,96.67
2022-09-07T05:58:55.162Z,96.62
2022-09-07T06:01:21.696Z,96.76
2022-09-07T06:03:48.347Z,96.55
2022-09-07T06:06:17.598Z,96.33
2022-09-07T06:08:49.337Z,96.35
2022-09-07T06:11:18.656Z,96.45
2022-09-07T06:13:45.558Z,96.43
2022-09-07T06:16:14.196Z,96.40
2022-09-07T06:18:43.277Z,96.27
2022-09-07T06:21:21.378Z,96.25
2022-09-07T06:23:49.345Z,96.24
2022-09-07T06:26:17.198Z,96.49
2022-09-07T06:28:49.190Z,96.44
2022-09-07T06:33:41.636Z,96.32
2022-09-07T06:36:13.652Z,95.73
2022-09-07T06:38:40.717Z,95.59
2022-09-07T06:44:00.899Z,94.97
2022-09-07T06:49:14.059Z,94.65
2022-09-07T06:51:40.585Z,94.33
2022-09-07T06:56:53.724Z,94.27
2022-09-07T06:59:20.381Z,93.71
2022-09-07T07:01:46.932Z,93.13
2022-09-07T07:04:14.419Z,92.95
2022-09-07T07:06:40.992Z,92.39
2022-09-07T07:09:10.721Z,92.67
2022-09-07T07:11:37.763Z,92.94
2022-09-07T07:14:04.809Z,92.72
2022-09-07T07:16:31.577Z,92.69
2022-09-07T07:18:58.384Z,92.73
2022-09-07T07:21:24.931Z,92.29
2022-09-07T07:23:53.169Z,92.20
2022-09-07T07:26:26.822Z,92.06
2022-09-07T07:29:03.879Z,92.41
2022-09-07T07:31:33.259Z,90.97
2022-09-07T07:33:59.939Z,88.59
2022-09-07T07:36:27.701Z,86.99
2022-09-07T07:44:18.768Z,84.86
2022-09-07T07:46:48.771Z,82.99
2022-09-07T07:49:15.368Z,81.07
2022-09-07T07:54:28.444Z,79.02
2022-09-07T07:56:54.876Z,78.93
2022-09-07T07:59:21.465Z,78.63
2022-09-07T08:01:48.006Z,79.48
2022-09-07T08:04:14.808Z,79.65
2022-09-07T08:06:44.382Z,77.27
2022-09-07T08:09:13.948Z,77.25
2022-09-07T08:11:40.687Z,77.33
2022-09-07T08:14:08.664Z,76.21
2022-09-07T08:16:36.355Z,74.97
2022-09-07T08:19:03.207Z,76.04
2022-09-07T08:21:29.889Z,73.48
2022-09-07T08:23:56.425Z,73.38
2022-09-07T08:26:22.948Z,73.13
2022-09-07T08:28:49.496Z,72.88
2022-09-07T08:31:17.137Z,72.77
2022-09-07T08:33:43.725Z,71.23
2022-09-07T08:36:15.538Z,70.05
2022-09-07T08:38:42.405Z,70.36
2022-09-07T08:41:46.521Z,71.74
2022-09-07T08:44:18.889Z,73.89
2022-09-07T08:46:58.670Z,72.64
2022-09-07T08:49:48.818Z,72.64
2022-09-07T08:52:21.366Z,74.23
2022-09-07T08:54:58.720Z,73.26
2022-09-07T08:57:28.121Z,72.27
2022-09-07T09:00:08.458Z,73.35
2022-09-07T09:02:42.028Z,74.25
2022-09-07T09:05:40.360Z,75.44
2022-09-07T09:08:12.244Z,75.14
2022-09-07T09:11:01.960Z,74.78
2022-09-07T09:13:52.150Z,72.76
2022-09-07T09:16:32.199Z,72.11
2022-09-07T09:19:30.605Z,70.53
2022-09-07T09:22:13.796Z,70.12
2022-09-07T09:24:47.764Z,67.89
2022-09-07T09:27:14.612Z,63.54
2022-09-07T09:29:41.209Z,62.02
2022-09-07T09:32:37.731Z,63.32
2022-09-07T09:35:36.350Z,59.57
2022-09-07T09:38:03.781Z,60.43
2022-09-07T09:40:32.725Z,60.41
2022-09-07T09:43:17.438Z,59.07
2022-09-07T09:48:40.433Z,59.73
2022-09-07T09:54:06.292Z,58.55
2022-09-07T09:56:41.665Z,60.03
2022-09-07T10:05:36.072Z,59.21
2022-09-07T10:08:06.160Z,59.69
2022-09-07T10:10:32.985Z,58.70
2022-09-07T10:12:59.734Z,58.11
2022-09-07T10:15:41.250Z,57.54
2022-09-07T10:18:18.684Z,58.11
2022-09-07T10:20:45.391Z,59.63
2022-09-07T10:23:22.196Z,61.41
2022-09-07T10:25:48.921Z,62.63
2022-09-07T10:28:18.365Z,63.26
2022-09-07T10:30:47.686Z,63.39
2022-09-07T10:33:24.841Z,63.92
2022-09-07T10:35:57.850Z,63.53
2022-09-07T10:38:26.012Z,60.22
2022-09-07T10:41:05.853Z,59.15
2022-09-07T10:43:41.341Z,61.48
2022-09-07T10:49:40.900Z,61.68
2022-09-07T10:52:34.599Z,59.92
2022-09-07T10:55:26.413Z,59.25
2022-09-07T11:02:01.811Z,53.84
2022-09-07T11:04:49.365Z,53.90
2022-09-07T11:07:41.766Z,52.35
2022-09-07T11:10:26.273Z,54.92
2022-09-07T11:12:57.859Z,56.55
2022-09-07T11:15:38.804Z,55.41
2022-09-07T11:18:16.933Z,53.94
2022-09-07T11:20:55.466Z,53.04
2022-09-07T11:23:46.773Z,54.56
2022-09-07T11:26:20.515Z,56.85
2022-09-07T11:31:45.935Z,56.84
2022-09-07T11:34:27.560Z,60.57
2022-09-07T11:37:01.182Z,64.60
2022-09-07T11:39:54.368Z,65.22
2022-09-07T11:42:49.057Z,67.69
2022-09-07T11:45:17.555Z,67.02
2022-09-07T11:47:55.969Z,66.83
2022-09-07T11:50:23.834Z,65.35
2022-09-07T11:52:55.590Z,62.72
2022-09-07T11:55:27.388Z,60.56
2022-09-07T11:58:30.104Z,60.18
2022-09-07T12:01:11.677Z,58.97
2022-09-07T12:03:56.484Z,59.46
2022-09-07T12:06:38.534Z,60.49
2022-09-07T12:09:22.964Z,58.57
2022-09-07T12:12:08.295Z,58.06
2022-09-07T12:15:05.857Z,60.08
2022-09-07T12:17:48.009Z,60.66
2022-09-07T12:20:20.529Z,61.74
2022-09-07T12:23:05.769Z,61.87
2022-09-07T12:25:34.124Z,61.89
2022-09-07T12:28:01.192Z,61.86
2022-09-07T12:30:30.230Z,60.48
2022-09-07T12:32:58.427Z,57.77
2022-09-07T12:35:28.446Z,58.01
2022-09-07T12:37:56.612Z,60.53
2022-09-07T12:40:29.719Z,59.48
2022-09-07T12:43:14.596Z,59.66
2022-09-07T12:45:41.639Z,60.60
2022-09-07T12:48:17.074Z,60.80
2022-09-07T12:51:03.821Z,59.83
2022-09-07T12:53:46.123Z,59.78
2022-09-07T12:56:37.437Z,58.95
2022-09-07T12:59:22.237Z,58.90
2022-09-07T13:02:10.095Z,57.00
2022-09-07T13:04:37.067Z,56.53
2022-09-07T13:07:27.452Z,56.01
2022-09-07T13:09:59.454Z,56.37
2022-09-07T13:12:54.898Z,55.73
2022-09-07T13:15:45.868Z,57.63
2022-09-07T13:18:34.941Z,57.08
2022-09-07T13:21:07.652Z,58.63
2022-09-07T13:23:37.921Z,58.63
2022-09-07T13:26:08.079Z,58.59
2022-09-07T13:28:51.079Z,58.32
2022-09-07T13:31:39.222Z,58.30
2022-09-07T13:34:33.852Z,58.07
2022-09-07T13:37:22.790Z,58.02
2022-09-07T13:39:52.628Z,57.80
2022-09-07T13:42:25.193Z,57.92
2022-09-07T13:44:57.499Z,57.69
2022-09-07T13:47:42.156Z,56.38
2022-09-07T13:50:24.210Z,53.44
2022-09-07T13:53:15.234Z,51.72
2022-09-07T13:55:56.821Z,51.39
2022-09-07T13:58:33.316Z,50.16
2022-09-07T14:01:02.854Z,51.27
2022-09-07T14:03:52.012Z,51.73
2022-09-07T14:06:21.612Z,51.14
2022-09-07T14:08:50.553Z,48.41
2022-09-07T14:11:26.892Z,49.60
2022-09-07T14:14:14.508Z,51.29
2022-09-07T14:16:47.141Z,49.65
2022-09-07T14:19:31.940Z,50.78
2022-09-07T14:22:01.596Z,51.19
2022-09-07T14:24:37.009Z,51.85
2022-09-07T14:27:05.309Z,52.48
2022-09-07T14:29:34.459Z,52.52
2022-09-07T14:32:03.508Z,50.23
2022-09-07T14:34:36.321Z,50.26
2022-09-07T14:37:07.087Z,49.83
2022-09-07T14:39:38.266Z,49.76
2022-09-07T14:42:05.303Z,50.07
2022-09-07T14:44:31.742Z,50.23
2022-09-07T14:47:02.830Z,49.83
2022-09-07T14:49:29.633Z,50.14
2022-09-07T14:51:56.265Z,50.24
2022-09-07T14:54:32.935Z,51.74
2022-09-07T14:57:28.283Z,52.51
2022-09-07T14:59:57.236Z,54.28
2022-09-07T15:02:36.976Z,54.22
2022-09-07T15:05:15.294Z,54.32
2022-09-07T15:07:48.689Z,54.37
2022-09-07T15:10:16.395Z,55.66
2022-09-07T15:12:44.211Z,55.31
2022-09-07T15:15:26.707Z,56.14
2022-09-07T15:18:05.883Z,55.35
2022-09-07T15:20:43.280Z,54.70
2022-09-07T15:23:16.926Z,52.26
2022-09-07T15:25:50.907Z,50.62
2022-09-07T15:34:15.747Z,49.56
2022-09-07T15:36:46.375Z,50.43
2022-09-07T15:39:18.623Z,49.51
2022-09-07T15:41:45.854Z,50.42
2022-09-07T15:44:13.864Z,52.29
2022-09-07T15:46:41.127Z,50.61
2022-09-07T15:49:08.204Z,50.23
2022-09-07T15:54:21.869Z,53.41
2022-09-07T15:59:34.865Z,50.40
2022-09-07T16:02:01.996Z,50.32
2022-09-07T16:04:29.378Z,51.67
2022-09-07T16:06:56.031Z,51.28
2022-09-07T16:09:22.719Z,52.69
2022-09-07T16:11:50.640Z,53.53
2022-09-07T16:14:17.734Z,53.41
2022-09-07T16:19:34.641Z,56.21
2022-09-07T16:22:01.981Z,56.69
2022-09-07T16:24:28.757Z,55.61
2022-09-07T16:26:55.325Z,56.89
2022-09-07T16:29:21.834Z,56.83
2022-09-07T16:34:35.098Z,56.64
2022-09-07T16:37:01.861Z,55.79
2022-09-07T16:39:29.203Z,55.90
2022-09-07T16:41:56.006Z,56.06
2022-09-07T16:44:22.928Z,56.55
2022-09-07T16:46:50.544Z,56.95
2022-09-07T16:49:17.756Z,56.32
2022-09-07T16:51:45.776Z,56.13
2022-09-07T16:54:14.338Z,56.23
2022-09-07T16:56:40.897Z,55.28
2022-09-07T16:59:13.538Z,56.59
2022-09-07T17:01:42.010Z,56.46
2022-09-07T17:04:11.207Z,55.42
2022-09-07T17:06:45.300Z,54.44
2022-09-07T17:09:13.404Z,54.18
2022-09-07T17:11:40.277Z,53.97
2022-09-07T17:14:07.184Z,54.48
2022-09-07T17:16:39.115Z,53.96
2022-09-07T17:21:55.520Z,54.34
2022-09-07T17:24:23.917Z,54.87
2022-09-07T17:26:50.445Z,55.20
2022-09-07T17:29:16.946Z,55.29
2022-09-07T17:34:30.581Z,56.08
2022-09-07T17:36:57.893Z,56.28
2022-09-07T17:39:24.743Z,57.44
2022-09-07T17:41:54.629Z,58.44
2022-09-07T17:44:23.402Z,58.17
2022-09-07T17:46:50.984Z,58.99
2022-09-07T17:49:17.832Z,59.86
2022-09-07T17:51:45.334Z,59.30
2022-09-07T17:58:42.793Z,61.04
2022-09-07T18:01:15.872Z,61.36
2022-09-07T18:03:43.122Z,62.84
2022-09-07T18:06:10.881Z,63.50
2022-09-07T18:08:38.007Z,64.01
2022-09-07T18:14:00.034Z,65.28
2022-09-07T18:16:28.152Z,65.27
2022-09-07T18:18:56.339Z,65.63
2022-09-07T18:21:30.763Z,65.92
2022-09-07T18:24:08.889Z,66.08
2022-09-07T18:26:39.129Z,66.11
2022-09-07T18:29:18.725Z,66.72
2022-09-07T18:31:53.926Z,67.02
2022-09-07T18:34:20.785Z,66.95
2022-09-07T18:36:47.571Z,67.28
2022-09-07T18:39:14.242Z,68.30
2022-09-07T18:41:42.200Z,68.24
2022-09-07T18:46:55.689Z,68.60
2022-09-07T18:49:22.292Z,69.18
2022-09-07T18:54:35.336Z,70.52
2022-09-07T18:57:01.959Z,70.79
2022-09-07T18:59:29.733Z,71.06
2022-09-07T19:02:03.054Z,70.99
2022-09-07T19:07:17.841Z,72.01
2022-09-07T19:09:44.345Z,71.94
2022-09-07T19:12:10.874Z,72.19
2022-09-07T19:14:37.425Z,72.27
2022-09-07T19:17:04.006Z,72.76
2022-09-07T19:19:30.620Z,72.62
2022-09-07T19:21:58.302Z,73.12
2022-09-07T19:24:25.815Z,73.44
2022-09-07T19:26:55.716Z,73.03
2022-09-07T19:29:24.773Z,73.60
2022-09-07T19:32:05.326Z,73.49
2022-09-07T19:34:40.209Z,74.64
2022-09-07T19:37:08.445Z,74.88
2022-09-07T19:39:34.934Z,74.77
2022-09-07T19:42:04.147Z,75.24
2022-09-07T19:44:31.481Z,75.43
2022-09-07T19:46:58.185Z,75.31
2022-09-07T19:49:24.723Z,75.76
2022-09-07T19:51:52.088Z,75.37
2022-09-07T19:54:18.713Z,76.21
2022-09-07T19:56:45.162Z,76.34
2022-09-07T19:59:11.980Z,77.00
2022-09-07T20:01:40.139Z,77.40
2022-09-07T20:04:10.558Z,77.64
2022-09-07T20:06:39.462Z,78.08
2022-09-07T20:09:07.068Z,77.87
2022-09-07T20:11:34.868Z,78.59
2022-09-07T20:14:01.627Z,78.26
2022-09-07T20:16:28.321Z,79.10
2022-09-07T20:18:54.841Z,79.99
2022-09-07T20:21:23.594Z,80.31
2022-09-07T20:23:51.024Z,80.13
2022-09-07T20:26:19.937Z,80.82
2022-09-07T20:28:46.919Z,80.75
2022-09-07T20:31:15.927Z,80.24
2022-09-07T20:33:43.977Z,80.41
2022-09-07T20:36:16.013Z,80.94
2022-09-07T20:38:43.582Z,80.32
2022-09-07T20:41:13.298Z,80.08
2022-09-07T20:43:39.796Z,79.62
2022-09-07T20:46:06.560Z,79.48
2022-09-07T20:48:34.014Z,79.93
2022-09-07T20:51:01.420Z,79.62
2022-09-07T20:53:27.991Z,79.68
2022-09-07T20:56:00.115Z,80.45
2022-09-07T20:58:26.641Z,80.32
2022-09-07T21:00:53.351Z,80.59
2022-09-07T21:03:19.930Z,80.58
2022-09-07T21:05:46.447Z,80.79
2022-09-07T21:08:13.607Z,81.18
2022-09-07T21:10:41.502Z,81.02
2022-09-07T21:13:08.416Z,82.03
2022-09-07T21:15:42.607Z,82.42
2022-09-07T21:18:14.313Z,82.59
2022-09-07T21:20:41.018Z,81.82
2022-09-07T21:23:07.619Z,82.95
2022-09-07T21:25:34.112Z,82.81
2022-09-07T21:28:00.637Z,82.18
2022-09-07T21:30:27.175Z,81.56
2022-09-07T21:32:53.623Z,81.13
2022-09-07T21:35:20.516Z,81.09
2022-09-07T21:37:47.004Z,81.83
2022-09-07T21:40:13.654Z,81.93
2022-09-07T21:42:40.704Z,81.88
2022-09-07T21:45:09.135Z,81.76
2022-09-07T21:47:35.641Z,81.40
2022-09-07T21:50:02.455Z,80.86
2022-09-07T21:52:28.940Z,80.28
2022-09-07T21:54:55.459Z,80.50
2022-09-07T21:57:21.905Z,79.79
2022-09-07T21:59:48.454Z,78.84
2022-09-07T22:02:15.074Z,78.74
2022-09-07T22:04:41.685Z,78.99
2022-09-07T22:07:08.198Z,78.94
2022-09-07T22:09:34.689Z,79.05
2022-09-07T22:12:01.286Z,79.17
2022-09-07T22:14:27.863Z,79.29
2022-09-07T22:16:54.371Z,78.89
2022-09-07T22:19:20.962Z,78.98
2022-09-07T22:21:47.434Z,78.99
2022-09-07T22:24:15.263Z,79.36
2022-09-07T22:26:41.916Z,79.44
2022-09-07T22:29:11.636Z,79.37
2022-09-07T22:31:39.267Z,79.35
2022-09-07T22:34:10.566Z,79.27
2022-09-07T22:36:43.227Z,79.22
2022-09-07T22:39:15.584Z,79.31
2022-09-07T22:41:42.774Z,79.20
2022-09-07T22:44:15.452Z,79.45
2022-09-07T22:46:43.738Z,79.12
2022-09-07T22:49:12.619Z,79.24
2022-09-07T22:51:39.352Z,79.03
2022-09-07T22:54:06.423Z,79.24
2022-09-07T22:56:34.146Z,79.02
2022-09-07T22:59:03.810Z,79.11
2022-09-07T23:01:31.847Z,79.11
2022-09-07T23:03:58.688Z,79.29
2022-09-07T23:06:34.193Z,79.48
2022-09-07T23:09:04.356Z,79.09
2022-09-07T23:11:30.948Z,78.82
2022-09-07T23:13:59.307Z,79.04
2022-09-07T23:16:27.749Z,79.10
2022-09-07T23:18:55.496Z,78.81
2022-09-07T23:21:22.140Z,78.84
2022-09-07T23:23:52.790Z,78.62
2022-09-07T23:26:21.682Z,78.99
2022-09-07T23:28:56.588Z,79.25
2022-09-07T23:31:23.973Z,79.02
2022-09-07T23:33:51.140Z,78.90
2022-09-07T23:36:18.788Z,78.93
2022-09-07T23:38:45.709Z,79.21
2022-09-07T23:41:14.231Z,79.15
2022-09-07T23:43:41.180Z,78.95
2022-09-07T23:46:07.956Z,78.83
2022-09-07T23:48:34.455Z,78.75
2022-09-07T23:51:00.967Z,78.77
2022-09-07T23:53:27.488Z,78.45
2022-09-07T23:55:54.194Z,78.13
